createdAt,value
2023-04-12T00:00:19.747Z,21.10
2023-04-12T00:03:10.397Z,19.90
2023-04-12T00:05:39.224Z,17.20
2023-04-12T00:08:10.829Z,13.70
2023-04-12T00:10:38.973Z,13.90
2023-04-12T00:13:10.789Z,13.30
2023-04-12T00:15:39.186Z,11.00
2023-04-12T00:18:07.389Z,12.60
2023-04-12T00:20:35.443Z,10.50
2023-04-12T00:23:04.151Z,9.80
2023-04-12T00:25:32.215Z,9.20
2023-04-12T00:28:00.378Z,10.80
2023-04-12T00:30:28.994Z,12.50
2023-04-12T00:32:57.026Z,8.70
2023-04-12T00:35:26.602Z,10.30
2023-04-12T00:37:55.040Z,8.60
2023-04-12T00:40:23.247Z,9.70
2023-04-12T00:42:51.413Z,7.70
2023-04-12T00:45:19.494Z,9.50
2023-04-12T00:47:47.911Z,10.10
2023-04-12T00:50:16.196Z,10.80
2023-04-12T00:52:46.934Z,12.20
2023-04-12T00:55:15.986Z,10.40
2023-04-12T00:57:44.095Z,12.90
2023-04-12T01:00:13.304Z,10.90
2023-04-12T01:02:47.484Z,10.10
2023-04-12T01:05:22.708Z,12.60
2023-04-12T01:08:23.334Z,14.70
2023-04-12T01:11:01.792Z,14.00
2023-04-12T01:13:53.267Z,17.50
2023-04-12T01:16:26.644Z,17.80
2023-04-12T01:18:59.930Z,17.70
2023-04-12T01:21:45.307Z,19.90
2023-04-12T01:24:33.022Z,22.40
2023-04-12T01:27:03.582Z,25.20
2023-04-12T01:29:32.548Z,22.20
2023-04-12T01:32:03.174Z,25.40
2023-04-12T01:34:33.627Z,21.30
2023-04-12T01:37:04.139Z,26.40
2023-04-12T01:39:33.974Z,27.10
2023-04-12T01:42:04.085Z,30.10
2023-04-12T01:44:32.431Z,29.10
2023-04-12T01:47:01.124Z,29.60
2023-04-12T01:49:39.655Z,32.50
2023-04-12T01:52:12.668Z,28.90
2023-04-12T01:54:43.005Z,30.70
2023-04-12T01:57:11.586Z,31.80
2023-04-12T01:59:41.932Z,32.60
2023-04-12T02:02:12.215Z,34.20
2023-04-12T02:04:42.354Z,33.00
2023-04-12T02:07:12.148Z,31.40
2023-04-12T02:09:40.523Z,32.10
2023-04-12T02:12:09.617Z,35.80
2023-04-12T02:14:37.880Z,33.90
2023-04-12T02:17:06.135Z,39.70
2023-04-12T02:19:34.475Z,44.30
2023-04-12T02:22:04.622Z,37.70
2023-04-12T02:24:32.838Z,42.30
2023-04-12T02:27:02.078Z,40.30
2023-04-12T02:29:31.467Z,40.80
2023-04-12T02:31:59.653Z,37.30
2023-04-12T02:34:31.430Z,38.00
2023-04-12T02:37:04.986Z,39.30
2023-04-12T02:39:34.584Z,38.10
2023-04-12T02:42:02.903Z,36.40
2023-04-12T02:44:31.502Z,40.30
2023-04-12T02:47:11.686Z,37.80
2023-04-12T02:49:40.915Z,37.20
2023-04-12T02:52:10.757Z,37.40
2023-04-12T02:54:46.484Z,33.80
2023-04-12T02:57:16.940Z,33.20
2023-04-12T02:59:48.989Z,32.70
2023-04-12T03:02:24.549Z,32.30
2023-04-12T03:04:54.918Z,34.70
2023-04-12T03:09:55.555Z,27.90
2023-04-12T03:12:24.648Z,31.00
2023-04-12T03:15:15.702Z,32.50
2023-04-12T03:17:48.527Z,29.10
2023-04-12T03:20:20.331Z,31.20
2023-04-12T03:22:58.979Z,30.60
2023-04-12T03:25:29.324Z,29.20
2023-04-12T03:28:01.370Z,32.80
2023-04-12T03:30:43.447Z,29.20
2023-04-12T03:33:11.524Z,29.50
2023-04-12T03:35:39.972Z,27.80
2023-04-12T03:38:08.562Z,28.20
2023-04-12T03:40:36.628Z,30.20
2023-04-12T03:43:05.419Z,24.30
2023-04-12T03:45:33.583Z,26.10
2023-04-12T03:48:03.316Z,27.60
2023-04-12T03:50:44.665Z,28.90
2023-04-12T03:53:18.693Z,31.10
2023-04-12T03:55:47.936Z,24.20
2023-04-12T03:58:16.596Z,29.30
2023-04-12T04:05:13.331Z,30.80
2023-04-12T04:07:42.692Z,30.30
2023-04-12T04:10:12.100Z,26.10
2023-04-12T04:12:41.265Z,28.70
2023-04-12T04:15:12.137Z,29.30
2023-04-12T04:17:42.803Z,29.20
2023-04-12T04:20:13.616Z,25.90
2023-04-12T04:22:43.374Z,32.00
2023-04-12T04:25:14.284Z,34.40
2023-04-12T04:34:40.493Z,31.80
2023-04-12T04:37:15.611Z,30.90
2023-04-12T04:39:45.331Z,31.90
2023-04-12T04:42:13.562Z,31.30
2023-04-12T04:45:03.711Z,37.00
2023-04-12T04:47:36.735Z,35.50
2023-04-12T04:50:05.238Z,31.90
2023-04-12T04:52:33.384Z,31.40
2023-04-12T04:55:07.970Z,31.40
2023-04-12T04:57:37.724Z,31.30
2023-04-12T05:00:11.240Z,29.20
2023-04-12T05:02:43.913Z,34.50
2023-04-12T05:05:16.016Z,32.40
2023-04-12T05:07:44.938Z,30.90
2023-04-12T05:10:13.109Z,29.40
2023-04-12T05:12:42.351Z,32.50
2023-04-12T05:15:12.375Z,33.00
2023-04-12T05:17:42.040Z,32.80
2023-04-12T05:20:13.332Z,30.30
2023-04-12T05:22:41.412Z,28.60
2023-04-12T05:25:11.483Z,29.50
2023-04-12T05:27:50.403Z,30.70
2023-04-12T05:32:48.633Z,28.60
2023-04-12T05:35:18.086Z,25.50
2023-04-12T05:37:46.329Z,26.40
2023-04-12T05:40:14.927Z,30.60
2023-04-12T05:42:42.985Z,27.90
2023-04-12T05:45:12.634Z,29.80
2023-04-12T05:47:42.902Z,30.70
2023-04-12T05:50:11.010Z,27.50
2023-04-12T05:52:39.448Z,28.80
2023-04-12T05:55:08.178Z,28.70
2023-04-12T05:57:37.583Z,27.40
2023-04-12T06:00:13.260Z,30.60
2023-04-12T06:02:45.177Z,28.60
2023-04-12T06:05:14.748Z,26.30
2023-04-12T06:07:47.079Z,27.10
2023-04-12T06:10:17.621Z,27.80
2023-04-12T06:12:48.666Z,25.90
2023-04-12T06:15:16.753Z,28.60
2023-04-12T06:17:45.489Z,27.40
2023-04-12T06:20:13.802Z,24.50
2023-04-12T06:22:41.964Z,31.90
2023-04-12T06:25:10.139Z,25.50
2023-04-12T06:27:38.575Z,29.00
2023-04-12T06:30:07.639Z,29.70
2023-04-12T06:32:38.637Z,31.70
2023-04-12T06:35:07.807Z,23.90
2023-04-12T06:37:36.255Z,26.90
2023-04-12T06:40:04.848Z,29.20
2023-04-12T06:42:32.737Z,24.70
2023-04-12T06:45:00.879Z,21.80
2023-04-12T06:47:30.244Z,25.30
2023-04-12T06:49:58.468Z,22.50
2023-04-12T06:52:27.539Z,23.90
2023-04-12T06:54:56.929Z,27.70
2023-04-12T06:57:25.206Z,27.60
2023-04-12T06:59:56.265Z,32.60
2023-04-12T07:02:24.221Z,25.30
2023-04-12T07:04:54.368Z,27.80
2023-04-12T07:07:23.122Z,24.40
2023-04-12T07:09:52.473Z,27.20
2023-04-12T07:12:22.107Z,25.60
2023-04-12T07:14:50.133Z,26.50
2023-04-12T07:17:18.389Z,25.30
2023-04-12T07:19:46.386Z,31.80
2023-04-12T07:22:14.987Z,25.90
2023-04-12T07:24:43.112Z,26.80
2023-04-12T07:27:11.248Z,25.30
2023-04-12T07:29:39.262Z,24.60
2023-04-12T07:32:09.124Z,24.50
2023-04-12T07:34:37.941Z,22.10
2023-04-12T07:37:06.358Z,22.80
2023-04-12T07:39:35.187Z,28.00
2023-04-12T07:42:03.505Z,24.50
2023-04-12T07:44:31.933Z,24.40
2023-04-12T07:46:59.939Z,23.70
2023-04-12T07:49:28.328Z,22.00
2023-04-12T07:51:57.624Z,20.10
2023-04-12T07:54:28.293Z,21.70
2023-04-12T07:57:02.000Z,20.60
2023-04-12T07:59:32.036Z,23.20
2023-04-12T08:02:00.738Z,20.80
2023-04-12T08:04:29.072Z,20.00
2023-04-12T08:06:57.093Z,23.80
2023-04-12T08:09:25.238Z,24.20
2023-04-12T08:11:54.135Z,19.70
2023-04-12T08:14:22.079Z,19.30
2023-04-12T08:16:50.028Z,19.50
2023-04-12T08:19:18.924Z,19.70
2023-04-12T08:21:47.032Z,19.30
2023-04-12T08:24:14.971Z,22.20
2023-04-12T08:26:43.213Z,23.00
2023-04-12T08:29:12.608Z,20.50
2023-04-12T08:31:41.567Z,22.40
2023-04-12T08:34:09.550Z,20.40
2023-04-12T08:36:37.603Z,18.90
2023-04-12T08:39:05.790Z,17.60
2023-04-12T08:41:36.547Z,18.40
2023-04-12T08:44:05.914Z,17.80
2023-04-12T08:46:36.391Z,17.90
2023-04-12T08:49:04.851Z,22.50
2023-04-12T08:51:34.153Z,19.90
2023-04-12T08:54:02.124Z,18.10
2023-04-12T08:56:30.576Z,19.30
2023-04-12T08:59:01.076Z,20.30
2023-04-12T09:01:29.842Z,17.90
2023-04-12T09:03:58.434Z,22.60
2023-04-12T09:06:27.510Z,18.70
2023-04-12T09:08:57.415Z,23.40
2023-04-12T09:11:27.478Z,17.80
2023-04-12T09:13:58.204Z,19.30
2023-04-12T09:16:41.449Z,13.80
2023-04-12T09:19:10.125Z,19.20
2023-04-12T09:21:53.778Z,17.90
2023-04-12T09:24:24.469Z,15.00
2023-04-12T09:27:03.593Z,16.40
2023-04-12T09:29:32.933Z,13.30
2023-04-12T09:32:06.713Z,15.10
2023-04-12T09:34:36.304Z,13.10
2023-04-12T09:37:15.080Z,14.70
2023-04-12T09:39:44.348Z,16.00
2023-04-12T09:42:29.813Z,17.60
2023-04-12T09:45:03.594Z,16.00
2023-04-12T09:47:39.922Z,15.80
2023-04-12T09:50:09.875Z,16.00
2023-04-12T09:52:40.019Z,17.10
2023-04-12T09:55:13.734Z,17.30
2023-04-12T09:57:43.947Z,16.60
2023-04-12T10:00:20.379Z,15.20
2023-04-12T10:02:52.031Z,16.00
2023-04-12T10:05:23.346Z,13.80
2023-04-12T10:07:53.105Z,12.60
2023-04-12T10:10:21.694Z,12.70
2023-04-12T10:12:50.728Z,13.80
2023-04-12T10:15:21.312Z,14.90
2023-04-12T10:17:57.876Z,13.50
2023-04-12T10:20:29.308Z,13.40
2023-04-12T10:22:59.837Z,16.70
2023-04-12T10:25:31.918Z,13.90
2023-04-12T10:28:21.957Z,12.20
2023-04-12T10:30:52.308Z,14.40
2023-04-12T10:33:26.668Z,15.20
2023-04-12T10:36:00.955Z,14.00
2023-04-12T10:38:37.417Z,16.40
2023-04-12T10:41:15.284Z,16.10
2023-04-12T10:43:51.365Z,17.90
2023-04-12T10:46:47.539Z,20.80
2023-04-12T10:49:17.129Z,16.50
2023-04-12T10:52:09.764Z,15.00
2023-04-12T10:54:37.723Z,14.30
2023-04-12T10:57:08.542Z,22.20
2023-04-12T10:59:59.434Z,15.60
2023-04-12T11:04:37.907Z,16.00
2023-04-12T11:07:12.466Z,16.20
2023-04-12T11:09:51.258Z,17.70
2023-04-12T11:12:32.724Z,16.30
2023-04-12T11:15:03.273Z,19.10
2023-04-12T11:17:39.931Z,13.90
2023-04-12T11:20:12.680Z,17.40
2023-04-12T11:22:41.133Z,16.40
2023-04-12T11:25:10.228Z,16.10
2023-04-12T11:27:39.614Z,14.40
2023-04-12T11:30:08.603Z,22.00
2023-04-12T11:32:41.610Z,14.80
2023-04-12T11:35:10.140Z,21.80
2023-04-12T11:37:39.120Z,15.10
2023-04-12T11:40:09.662Z,15.00
2023-04-12T11:42:39.982Z,15.30
2023-04-12T11:45:17.247Z,13.90
2023-04-12T11:47:46.703Z,15.30
2023-04-12T11:50:28.192Z,15.30
2023-04-12T11:53:09.822Z,14.50
2023-04-12T11:55:37.937Z,14.50
2023-04-12T11:58:07.387Z,16.40
2023-04-12T12:00:35.599Z,12.80
2023-04-12T12:03:08.230Z,15.80
2023-04-12T12:05:42.152Z,16.30
2023-04-12T12:08:11.389Z,15.70
2023-04-12T12:10:52.400Z,15.70
2023-04-12T12:13:53.229Z,12.00
2023-04-12T12:16:28.133Z,16.10
2023-04-12T12:18:57.710Z,14.60
2023-04-12T12:21:27.586Z,16.20
2023-04-12T12:23:57.317Z,17.20
2023-04-12T12:26:28.422Z,22.00
2023-04-12T12:29:00.195Z,19.50
2023-04-12T12:31:29.721Z,16.10
2023-04-12T12:34:00.330Z,17.50
2023-04-12T12:36:33.478Z,14.00
2023-04-12T12:39:07.912Z,15.80
2023-04-12T12:41:36.707Z,14.40
2023-04-12T12:44:05.282Z,16.50
2023-04-12T12:49:06.196Z,16.90
2023-04-12T12:51:34.534Z,15.80
2023-04-12T12:54:03.128Z,15.60
2023-04-12T12:56:31.760Z,16.80
2023-04-12T12:58:59.839Z,17.00
2023-04-12T13:01:28.961Z,20.60
2023-04-12T13:03:58.975Z,20.30
2023-04-12T13:06:28.467Z,15.40
2023-04-12T13:08:56.880Z,15.00
2023-04-12T13:11:25.352Z,17.90
2023-04-12T13:13:53.380Z,16.20
2023-04-12T13:16:24.008Z,14.00
2023-04-12T13:21:21.898Z,16.00
2023-04-12T13:23:50.241Z,17.30
2023-04-12T13:26:18.703Z,15.70
2023-04-12T13:28:47.037Z,15.40
2023-04-12T13:31:15.809Z,17.40
2023-04-12T13:33:44.064Z,16.10
2023-04-12T13:36:12.037Z,15.50
2023-04-12T13:38:40.398Z,14.80
2023-04-12T13:41:08.477Z,14.90
2023-04-12T13:43:36.687Z,15.30
2023-04-12T13:46:04.972Z,15.10
2023-04-12T13:48:33.317Z,13.40
2023-04-12T13:51:02.049Z,15.20
2023-04-12T13:53:31.057Z,15.20
2023-04-12T13:55:59.277Z,15.10
2023-04-12T13:58:27.495Z,14.10
2023-04-12T14:00:56.911Z,12.40
2023-04-12T14:03:25.213Z,12.90
2023-04-12T14:05:53.398Z,14.40
2023-04-12T14:08:22.072Z,13.50
2023-04-12T14:10:50.138Z,15.20
2023-04-12T14:13:18.954Z,14.70
2023-04-12T14:15:47.985Z,15.40
2023-04-12T14:18:16.416Z,16.10
2023-04-12T14:20:46.617Z,15.40
2023-04-12T14:23:15.229Z,16.60
2023-04-12T14:25:43.680Z,16.00
2023-04-12T14:28:16.771Z,18.10
2023-04-12T14:30:45.409Z,14.80
2023-04-12T14:33:14.131Z,12.70
2023-04-12T14:35:42.342Z,12.90
2023-04-12T14:38:10.986Z,13.50
2023-04-12T14:40:39.421Z,15.00
2023-04-12T14:43:07.952Z,16.60
2023-04-12T14:45:39.152Z,14.30
2023-04-12T14:48:07.796Z,10.10
2023-04-12T14:50:36.138Z,12.10
2023-04-12T14:53:05.297Z,14.00
2023-04-12T14:55:33.536Z,13.70
2023-04-12T14:58:01.540Z,15.10
2023-04-12T15:00:29.875Z,14.20
2023-04-12T15:03:00.963Z,14.00
2023-04-12T15:05:30.677Z,14.50
2023-04-12T15:07:59.094Z,15.30
2023-04-12T15:10:28.216Z,13.70
2023-04-12T15:12:58.163Z,13.40
2023-04-12T15:15:26.245Z,15.20
2023-04-12T15:17:54.333Z,11.60
2023-04-12T15:20:22.713Z,15.00
2023-04-12T15:22:50.859Z,12.50
2023-04-12T15:25:18.884Z,12.70
2023-04-12T15:27:47.110Z,16.90
2023-04-12T15:30:15.716Z,15.80
2023-04-12T15:32:44.132Z,16.30
2023-04-12T15:37:44.260Z,14.80
2023-04-12T15:40:15.825Z,13.50
2023-04-12T15:42:44.344Z,14.20
2023-04-12T15:45:12.707Z,12.90
2023-04-12T15:47:41.445Z,17.40
2023-04-12T15:50:09.792Z,15.00
2023-04-12T15:52:37.913Z,13.10
2023-04-12T15:55:06.358Z,13.20
2023-04-12T15:57:34.497Z,11.40
2023-04-12T16:00:12.988Z,13.60
2023-04-12T16:02:41.267Z,12.40
2023-04-12T16:05:09.638Z,16.70
2023-04-12T16:07:40.684Z,15.60
2023-04-12T16:10:09.407Z,13.80
2023-04-12T16:12:37.687Z,15.30
2023-04-12T16:15:07.135Z,20.90
2023-04-12T16:17:37.471Z,16.80
2023-04-12T16:20:06.719Z,12.30
2023-04-12T16:22:34.944Z,14.20
2023-04-12T16:25:04.760Z,13.50
2023-04-12T16:27:33.152Z,15.00
2023-04-12T16:30:03.046Z,12.20
2023-04-12T16:32:32.303Z,12.90
2023-04-12T16:35:00.618Z,12.90
2023-04-12T16:37:30.159Z,12.40
2023-04-12T16:39:58.703Z,13.00
2023-04-12T16:42:28.880Z,14.10
2023-04-12T16:44:57.121Z,13.10
2023-04-12T16:47:25.561Z,12.70
2023-04-12T16:49:53.768Z,17.10
2023-04-12T16:52:22.070Z,18.20
2023-04-12T16:54:50.245Z,15.60
2023-04-12T16:57:18.517Z,13.70
2023-04-12T16:59:46.679Z,19.90
2023-04-12T17:02:14.648Z,20.90
2023-04-12T17:04:44.412Z,17.40
2023-04-12T17:07:12.639Z,12.30
2023-04-12T17:09:41.999Z,14.40
2023-04-12T17:12:10.033Z,12.20
2023-04-12T17:14:38.723Z,12.60
2023-04-12T17:17:07.162Z,13.30
2023-04-12T17:19:35.842Z,12.20
2023-04-12T17:22:04.046Z,12.10
2023-04-12T17:24:32.950Z,14.90
2023-04-12T17:27:01.154Z,15.30
2023-04-12T17:29:29.680Z,14.90
2023-04-12T17:31:57.947Z,12.00
2023-04-12T17:34:26.278Z,14.80
2023-04-12T17:36:55.379Z,12.40
2023-04-12T17:39:24.016Z,15.80
2023-04-12T17:41:52.460Z,17.80
2023-04-12T17:44:20.761Z,15.20
2023-04-12T17:46:49.057Z,17.90
2023-04-12T17:49:17.743Z,14.30
2023-04-12T17:51:45.907Z,12.30
2023-04-12T17:54:13.916Z,14.00
2023-04-12T17:56:42.553Z,15.00
2023-04-12T17:59:11.409Z,15.80
2023-04-12T18:01:39.794Z,16.70
2023-04-12T18:04:08.542Z,15.90
2023-04-12T18:06:37.361Z,20.00
2023-04-12T18:09:09.077Z,16.30
2023-04-12T18:11:39.089Z,16.00
2023-04-12T18:14:08.281Z,18.60
2023-04-12T18:16:37.111Z,20.40
2023-04-12T18:19:07.872Z,23.50
2023-04-12T18:21:35.877Z,22.60
2023-04-12T18:24:04.723Z,16.90
2023-04-12T18:26:32.945Z,16.00
2023-04-12T18:29:01.048Z,19.10
2023-04-12T18:31:30.446Z,24.60
2023-04-12T18:33:58.913Z,21.70
2023-04-12T18:36:27.349Z,20.00
2023-04-12T18:38:55.967Z,21.90
2023-04-12T18:41:26.450Z,19.90
2023-04-12T18:43:54.839Z,21.80
2023-04-12T18:46:22.998Z,23.40
2023-04-12T18:48:52.890Z,21.30
2023-04-12T18:51:23.065Z,20.40
2023-04-12T18:53:51.502Z,19.10
2023-04-12T18:56:24.527Z,21.90
2023-04-12T18:58:55.952Z,18.10
2023-04-12T19:04:37.065Z,26.40
2023-04-12T19:07:05.990Z,28.90
2023-04-12T19:09:34.598Z,16.60
2023-04-12T19:12:03.157Z,22.10
2023-04-12T19:14:32.099Z,17.50
2023-04-12T19:17:00.994Z,23.80
2023-04-12T19:19:29.240Z,16.60
2023-04-12T19:21:57.727Z,22.80
2023-04-12T19:24:26.019Z,21.30
2023-04-12T19:26:53.982Z,24.40
2023-04-12T19:29:22.803Z,25.50
2023-04-12T19:31:54.014Z,29.30
2023-04-12T19:34:23.175Z,18.90
2023-04-12T19:36:51.332Z,22.50
2023-04-12T19:39:20.660Z,25.40
2023-04-12T19:41:49.301Z,18.90
2023-04-12T19:44:17.451Z,25.40
2023-04-12T19:46:45.563Z,32.80
2023-04-12T19:49:13.963Z,43.40
2023-04-12T19:51:42.153Z,27.50
2023-04-12T19:54:10.110Z,24.00
2023-04-12T19:56:38.145Z,24.00
2023-04-12T19:59:06.844Z,27.50
2023-04-12T20:01:43.161Z,22.30
2023-04-12T20:04:11.413Z,29.20
2023-04-12T20:06:39.633Z,23.70
2023-04-12T20:09:08.021Z,31.60
2023-04-12T20:11:36.389Z,32.40
2023-04-12T20:14:10.734Z,31.40
2023-04-12T20:16:42.918Z,38.70
2023-04-12T20:21:40.363Z,34.00
2023-04-12T20:24:08.871Z,35.30
2023-04-12T20:26:37.397Z,33.10
2023-04-12T20:29:05.703Z,36.80
2023-04-12T20:31:33.969Z,34.00
2023-04-12T20:34:01.940Z,33.90
2023-04-12T20:36:29.865Z,37.60
2023-04-12T20:38:58.108Z,37.40
2023-04-12T20:41:26.319Z,47.20
2023-04-12T20:43:54.295Z,33.50
2023-04-12T20:46:26.008Z,46.70
2023-04-12T20:48:56.882Z,38.70
2023-04-12T20:51:25.084Z,40.70
2023-04-12T20:53:53.835Z,35.00
2023-04-12T20:56:22.008Z,35.50
2023-04-12T20:58:50.419Z,51.00
2023-04-12T21:01:18.996Z,49.60
2023-04-12T21:03:47.679Z,44.50
2023-04-12T21:06:17.103Z,53.10
2023-04-12T21:08:47.338Z,64.60
2023-04-12T21:11:16.789Z,55.50
2023-04-12T21:13:44.817Z,53.80
2023-04-12T21:16:16.153Z,67.00
2023-04-12T21:18:44.895Z,68.40
2023-04-12T21:21:12.942Z,71.10
2023-04-12T21:23:41.008Z,62.10
2023-04-12T21:26:08.989Z,63.80
2023-04-12T21:28:38.651Z,60.80
2023-04-12T21:31:07.013Z,57.70
2023-04-12T21:33:35.920Z,56.10
2023-04-12T21:36:04.433Z,58.90
2023-04-12T21:38:32.329Z,53.50
2023-04-12T21:41:05.895Z,50.70
2023-04-12T21:43:33.785Z,61.00
2023-04-12T21:46:01.814Z,57.60
2023-04-12T21:48:29.773Z,48.20
2023-04-12T21:50:57.672Z,55.80
2023-04-12T21:53:25.738Z,55.00
2023-04-12T21:55:53.604Z,51.10
2023-04-12T21:58:22.078Z,51.70
2023-04-12T22:00:50.027Z,48.60
2023-04-12T22:03:20.114Z,50.50
2023-04-12T22:06:00.873Z,47.50
2023-04-12T22:08:32.976Z,58.00
2023-04-12T22:11:01.426Z,49.90
2023-04-12T22:13:30.774Z,48.30
2023-04-12T22:16:00.715Z,51.80
2023-04-12T22:18:36.006Z,41.30
2023-04-12T22:21:07.869Z,45.30
2023-04-12T22:23:40.371Z,38.30
2023-04-12T22:26:09.198Z,36.40
2023-04-12T22:28:38.426Z,44.70
2023-04-12T22:31:14.665Z,48.40
2023-04-12T22:33:43.769Z,48.60
2023-04-12T22:36:11.681Z,49.20
2023-04-12T22:38:40.186Z,44.70
2023-04-12T22:41:08.051Z,46.00
2023-04-12T22:43:43.064Z,41.40
2023-04-12T22:46:15.919Z,41.40
2023-04-12T22:48:48.375Z,48.60
2023-04-12T22:53:44.438Z,42.40
2023-04-12T22:56:13.480Z,39.70
2023-04-12T22:58:42.905Z,46.70
2023-04-12T23:01:11.360Z,46.60
2023-04-12T23:03:42.653Z,48.60
2023-04-12T23:06:12.840Z,51.50
2023-04-12T23:08:40.761Z,57.10
2023-04-12T23:11:08.616Z,51.80
2023-04-12T23:13:36.727Z,57.00
2023-04-12T23:16:05.780Z,56.90
2023-04-12T23:18:33.850Z,56.00
2023-04-12T23:21:01.937Z,51.80
2023-04-12T23:23:30.882Z,44.80
2023-04-12T23:25:59.591Z,45.50
2023-04-12T23:28:28.520Z,40.90
2023-04-12T23:30:57.762Z,52.70
2023-04-12T23:33:25.661Z,49.60
2023-04-12T23:35:55.855Z,50.30
2023-04-12T23:38:26.229Z,47.00
2023-04-12T23:40:54.429Z,50.60
2023-04-12T23:43:24.478Z,54.60
2023-04-12T23:45:53.127Z,45.50
2023-04-12T23:48:21.771Z,45.40
2023-04-12T23:50:51.119Z,44.80
2023-04-12T23:53:19.433Z,46.20
2023-04-12T23:55:49.148Z,49.60
2023-04-12T23:58:18.280Z,52.00
